createdAt,value
2023-02-28T00:01:33.841Z,97.60
2023-02-28T00:04:04.656Z,97.40
2023-02-28T00:06:35.961Z,97.30
2023-02-28T00:09:06.871Z,97.30
2023-02-28T00:11:41.034Z,97.30
2023-02-28T00:14:11.853Z,97.10
2023-02-28T00:16:43.010Z,97.10
2023-02-28T00:19:14.570Z,97.10
2023-02-28T00:21:45.664Z,97.20
2023-02-28T00:24:16.514Z,97.10
2023-02-28T00:26:50.387Z,97.20
2023-02-28T00:29:21.449Z,97.50
2023-02-28T00:31:52.624Z,97.50
2023-02-28T00:34:23.400Z,97.30
2023-02-28T00:36:54.426Z,97.30
2023-02-28T00:39:25.227Z,97.30
2023-02-28T00:41:58.933Z,97.70
2023-02-28T00:44:29.696Z,97.30
2023-02-28T00:47:01.050Z,97.20
2023-02-28T00:49:32.825Z,97.60
2023-02-28T00:52:03.942Z,97.50
2023-02-28T00:54:34.678Z,97.40
2023-02-28T00:57:08.549Z,97.70
2023-02-28T00:59:39.336Z,97.50
2023-02-28T01:02:11.243Z,97.60
2023-02-28T01:04:42.088Z,97.40
2023-02-28T01:07:13.240Z,97.40
2023-02-28T01:09:44.116Z,97.40
2023-02-28T01:12:17.798Z,97.40
2023-02-28T01:14:51.636Z,97.30
2023-02-28T01:17:22.866Z,97.30
2023-02-28T01:19:53.677Z,97.40
2023-02-28T01:22:25.035Z,97.30
2023-02-28T01:24:56.025Z,97.20
2023-02-28T01:27:30.174Z,97.10
2023-02-28T01:30:01.137Z,97.10
2023-02-28T01:32:32.198Z,97.10
2023-02-28T01:35:02.629Z,97.20
2023-02-28T01:37:33.742Z,97.10
2023-02-28T01:40:04.122Z,97.10
2023-02-28T01:42:37.774Z,97.20
2023-02-28T01:45:22.498Z,97.20
2023-02-28T01:47:57.446Z,97.10
2023-02-28T01:50:30.786Z,97.10
2023-02-28T01:53:07.606Z,97.00
2023-02-28T01:55:40.312Z,97.00
2023-02-28T01:58:14.038Z,97.10
2023-02-28T02:00:44.894Z,97.10
2023-02-28T02:03:20.127Z,96.90
2023-02-28T02:05:51.110Z,97.00
2023-02-28T02:08:26.019Z,96.90
2023-02-28T02:11:00.112Z,96.90
2023-02-28T02:13:56.789Z,96.80
2023-02-28T02:16:45.660Z,96.90
2023-02-28T02:19:40.846Z,96.90
2023-02-28T02:22:30.183Z,96.90
2023-02-28T02:25:16.992Z,96.90
2023-02-28T02:28:03.683Z,96.80
2023-02-28T02:31:02.690Z,96.80
2023-02-28T02:34:05.639Z,97.00
2023-02-28T02:36:50.404Z,96.90
2023-02-28T02:39:31.678Z,96.90
2023-02-28T02:42:05.763Z,96.90
2023-02-28T02:44:45.679Z,97.00
2023-02-28T02:47:19.736Z,96.90
2023-02-28T02:49:55.043Z,97.00
2023-02-28T02:52:37.289Z,97.00
2023-02-28T02:55:13.962Z,97.10
2023-02-28T02:57:51.410Z,97.00
2023-02-28T03:00:27.402Z,97.00
2023-02-28T03:03:00.200Z,97.00
2023-02-28T03:05:38.263Z,97.00
2023-02-28T03:08:12.579Z,97.10
2023-02-28T03:10:45.514Z,97.20
2023-02-28T03:13:39.361Z,97.10
2023-02-28T03:16:37.148Z,97.10
2023-02-28T03:19:24.432Z,97.20
2023-02-28T03:22:03.031Z,97.30
2023-02-28T03:24:45.490Z,97.20
2023-02-28T03:27:21.081Z,97.20
2023-02-28T03:30:00.731Z,97.30
2023-02-28T03:32:35.787Z,97.20
2023-02-28T03:35:13.468Z,97.20
2023-02-28T03:37:47.121Z,97.30
2023-02-28T03:40:25.539Z,97.20
2023-02-28T03:43:02.864Z,97.30
2023-02-28T03:45:39.209Z,97.40
2023-02-28T03:48:16.007Z,97.30
2023-02-28T03:50:51.272Z,97.20
2023-02-28T03:53:25.760Z,97.20
2023-02-28T03:56:03.393Z,97.00
2023-02-28T03:58:41.637Z,97.10
2023-02-28T04:01:16.725Z,97.20
2023-02-28T04:03:47.556Z,97.20
2023-02-28T04:06:22.023Z,97.10
2023-02-28T04:08:54.169Z,97.20
2023-02-28T04:11:34.709Z,97.00
2023-02-28T04:14:06.087Z,97.10
2023-02-28T04:16:38.475Z,96.80
2023-02-28T04:19:11.044Z,96.80
2023-02-28T04:21:44.150Z,96.90
2023-02-28T04:24:17.362Z,96.90
2023-02-28T04:26:52.958Z,96.70
2023-02-28T04:29:25.346Z,96.70
2023-02-28T04:31:59.194Z,96.60
2023-02-28T04:34:30.866Z,96.80
2023-02-28T04:37:12.937Z,96.80
2023-02-28T04:39:45.366Z,96.90
2023-02-28T04:42:19.773Z,96.90
2023-02-28T04:44:50.641Z,96.90
2023-02-28T04:47:21.875Z,97.00
2023-02-28T04:49:52.617Z,96.90
2023-02-28T04:52:23.691Z,97.10
2023-02-28T04:54:54.567Z,97.00
2023-02-28T04:57:28.450Z,97.00
2023-02-28T04:59:59.360Z,97.00
2023-02-28T05:02:30.513Z,97.10
2023-02-28T05:05:01.628Z,96.90
2023-02-28T05:07:32.726Z,96.90
2023-02-28T05:10:05.034Z,96.90
2023-02-28T05:12:40.180Z,96.90
2023-02-28T05:15:12.777Z,96.80
2023-02-28T05:17:43.872Z,96.80
2023-02-28T05:20:17.281Z,96.90
2023-02-28T05:22:48.647Z,96.90
2023-02-28T05:25:23.323Z,96.70
2023-02-28T05:27:57.298Z,96.80
2023-02-28T05:30:28.066Z,96.80
2023-02-28T05:32:59.159Z,96.90
2023-02-28T05:35:30.449Z,96.90
2023-02-28T05:38:01.740Z,96.90
2023-02-28T05:40:32.429Z,96.90
2023-02-28T05:43:06.101Z,96.90
2023-02-28T05:45:37.255Z,97.00
2023-02-28T05:48:08.859Z,97.10
2023-02-28T05:50:39.650Z,97.10
2023-02-28T05:53:11.723Z,97.10
2023-02-28T05:55:42.441Z,97.40
2023-02-28T05:58:16.114Z,97.50
2023-02-28T06:00:46.838Z,97.50
2023-02-28T06:03:18.068Z,97.60
2023-02-28T06:05:49.094Z,97.80
2023-02-28T06:08:21.443Z,97.80
2023-02-28T06:10:52.205Z,97.90
2023-02-28T06:13:26.001Z,98.10
2023-02-28T06:15:56.698Z,98.00
2023-02-28T06:18:27.820Z,98.00
2023-02-28T06:20:58.898Z,98.20
2023-02-28T06:23:30.108Z,98.50
2023-02-28T06:26:00.863Z,98.30
2023-02-28T06:28:34.708Z,98.30
2023-02-28T06:31:10.887Z,98.40
2023-02-28T06:33:42.484Z,98.60
2023-02-28T06:36:15.013Z,98.70
2023-02-28T06:38:46.934Z,98.70
2023-02-28T06:41:17.742Z,98.70
2023-02-28T06:43:51.591Z,98.70
2023-02-28T06:46:22.905Z,98.70
2023-02-28T06:48:54.708Z,98.70
2023-02-28T06:51:25.971Z,98.70
2023-02-28T06:53:57.868Z,99.00
2023-02-28T06:56:28.826Z,98.80
2023-02-28T06:59:02.909Z,98.90
2023-02-28T07:01:34.425Z,98.80
2023-02-28T07:04:06.918Z,98.70
2023-02-28T07:06:38.200Z,98.70
2023-02-28T07:09:09.694Z,98.80
2023-02-28T07:11:40.743Z,98.80
2023-02-28T07:14:14.633Z,98.70
2023-02-28T07:16:46.941Z,98.70
2023-02-28T07:19:18.393Z,98.70
2023-02-28T07:21:49.645Z,98.60
2023-02-28T07:24:21.376Z,98.60
2023-02-28T07:26:52.219Z,98.60
2023-02-28T07:29:26.543Z,98.60
2023-02-28T07:31:57.670Z,98.50
2023-02-28T07:34:29.426Z,98.40
2023-02-28T07:37:04.806Z,98.40
2023-02-28T07:39:36.109Z,98.30
2023-02-28T07:42:11.753Z,98.20
2023-02-28T07:44:46.402Z,98.10
2023-02-28T07:47:17.289Z,97.90
2023-02-28T07:49:56.108Z,97.80
2023-02-28T07:52:28.130Z,97.20
2023-02-28T07:54:59.516Z,96.90
2023-02-28T07:57:30.429Z,96.70
2023-02-28T08:00:04.876Z,96.70
2023-02-28T08:02:42.542Z,96.30
2023-02-28T08:05:14.068Z,95.70
2023-02-28T08:07:45.104Z,95.40
2023-02-28T08:10:16.257Z,95.30
2023-02-28T08:12:47.177Z,95.00
2023-02-28T08:15:21.358Z,94.80
2023-02-28T08:17:52.356Z,94.80
2023-02-28T08:20:24.548Z,94.70
2023-02-28T08:22:56.412Z,94.80
2023-02-28T08:25:27.596Z,94.70
2023-02-28T08:27:58.181Z,94.10
2023-02-28T08:30:31.979Z,94.30
2023-02-28T08:33:03.172Z,94.50
2023-02-28T08:35:34.470Z,94.60
2023-02-28T08:38:04.939Z,94.90
2023-02-28T08:40:36.209Z,94.60
2023-02-28T08:43:07.180Z,94.70
2023-02-28T08:45:41.817Z,94.40
2023-02-28T08:48:12.822Z,94.40
2023-02-28T08:50:46.560Z,94.30
2023-02-28T08:53:21.396Z,94.10
2023-02-28T08:56:00.357Z,93.70
2023-02-28T08:58:31.916Z,93.80
2023-02-28T09:01:13.452Z,93.90
2023-02-28T09:03:47.325Z,93.70
2023-02-28T09:06:20.372Z,93.40
2023-02-28T09:08:51.248Z,93.30
2023-02-28T09:11:23.524Z,93.20
2023-02-28T09:13:54.405Z,93.30
2023-02-28T09:16:28.237Z,92.80
2023-02-28T09:18:59.388Z,92.50
2023-02-28T09:21:31.342Z,92.30
2023-02-28T09:24:02.307Z,92.60
2023-02-28T09:26:39.108Z,92.80
2023-02-28T09:29:19.024Z,92.60
2023-02-28T09:31:53.702Z,92.80
2023-02-28T09:34:24.701Z,92.80
2023-02-28T09:36:56.434Z,92.20
2023-02-28T09:39:28.095Z,92.00
2023-02-28T09:42:00.687Z,91.50
2023-02-28T09:44:35.715Z,91.30
2023-02-28T09:47:17.121Z,92.00
2023-02-28T09:49:51.033Z,91.00
2023-02-28T09:52:25.652Z,90.20
2023-02-28T09:54:56.693Z,91.40
2023-02-28T09:57:37.949Z,91.60
2023-02-28T10:00:19.313Z,92.00
2023-02-28T10:03:24.868Z,91.80
2023-02-28T10:05:59.858Z,91.30
2023-02-28T10:08:34.549Z,91.50
2023-02-28T10:11:11.119Z,91.80
2023-02-28T10:13:54.100Z,91.70
2023-02-28T10:16:32.341Z,91.70
2023-02-28T10:19:10.583Z,91.60
2023-02-28T10:21:46.468Z,91.50
2023-02-28T10:24:25.339Z,91.50
2023-02-28T10:27:01.052Z,91.40
2023-02-28T10:29:35.662Z,91.50
2023-02-28T10:32:09.163Z,90.80
2023-02-28T10:34:44.133Z,90.80
2023-02-28T10:37:17.313Z,90.80
2023-02-28T10:39:52.134Z,90.60
2023-02-28T10:42:31.594Z,90.80
2023-02-28T10:45:17.188Z,90.50
2023-02-28T10:47:57.084Z,90.50
2023-02-28T10:50:40.016Z,90.50
2023-02-28T10:53:29.110Z,90.50
2023-02-28T10:56:05.990Z,90.30
2023-02-28T10:58:51.425Z,90.40
2023-02-28T11:01:25.891Z,89.80
2023-02-28T11:03:58.569Z,90.20
2023-02-28T11:06:34.971Z,88.40
2023-02-28T11:09:11.437Z,87.10
2023-02-28T11:11:49.364Z,88.10
2023-02-28T11:14:24.765Z,86.80
2023-02-28T11:16:58.628Z,85.50
2023-02-28T11:19:31.982Z,86.30
2023-02-28T11:22:08.101Z,86.70
2023-02-28T11:24:41.249Z,87.40
2023-02-28T11:27:29.188Z,87.00
2023-02-28T11:30:00.641Z,87.20
2023-02-28T11:32:33.102Z,86.80
2023-02-28T11:35:18.060Z,87.20
2023-02-28T11:37:51.913Z,86.70
2023-02-28T11:40:27.510Z,84.70
2023-02-28T11:43:07.354Z,85.90
2023-02-28T11:45:58.340Z,85.60
2023-02-28T11:48:36.074Z,85.70
2023-02-28T11:51:17.088Z,86.40
2023-02-28T11:54:21.954Z,86.80
2023-02-28T11:56:57.364Z,86.60
2023-02-28T11:59:44.844Z,86.80
2023-02-28T12:02:36.897Z,85.60
2023-02-28T12:05:19.137Z,86.00
2023-02-28T12:08:00.916Z,85.20
2023-02-28T12:10:47.115Z,85.10
2023-02-28T12:13:26.516Z,85.80
2023-02-28T12:16:22.735Z,86.10
2023-02-28T12:19:05.098Z,85.30
2023-02-28T12:21:47.698Z,85.90
2023-02-28T12:24:55.123Z,86.00
2023-02-28T12:27:33.597Z,85.00
2023-02-28T12:30:09.061Z,85.40
2023-02-28T12:32:43.354Z,84.90
2023-02-28T12:35:18.806Z,84.90
2023-02-28T12:37:54.844Z,84.90
2023-02-28T12:40:27.584Z,83.60
2023-02-28T12:43:04.732Z,83.10
2023-02-28T12:45:44.607Z,80.80
2023-02-28T12:48:20.874Z,82.40
2023-02-28T12:50:53.121Z,82.40
2023-02-28T12:53:31.527Z,80.40
2023-02-28T12:56:13.205Z,80.30
2023-02-28T12:58:52.789Z,81.20
2023-02-28T13:01:40.744Z,80.90
2023-02-28T13:04:38.815Z,80.10
2023-02-28T13:07:23.199Z,80.10
2023-02-28T13:09:58.947Z,79.40
2023-02-28T13:12:30.345Z,79.90
2023-02-28T13:15:16.295Z,80.00
2023-02-28T13:17:54.265Z,79.30
2023-02-28T13:20:28.275Z,79.20
2023-02-28T13:23:02.425Z,79.00
2023-02-28T13:25:58.845Z,78.20
2023-02-28T13:29:11.522Z,78.40
2023-02-28T13:32:12.543Z,77.80
2023-02-28T13:34:51.585Z,78.40
2023-02-28T13:37:40.993Z,78.40
2023-02-28T13:40:38.316Z,77.60
2023-02-28T13:43:12.938Z,76.40
2023-02-28T13:46:03.680Z,77.10
2023-02-28T13:48:34.999Z,77.10
2023-02-28T13:51:20.208Z,76.90
2023-02-28T13:54:08.198Z,73.00
2023-02-28T13:56:49.431Z,73.80
2023-02-28T13:59:29.339Z,74.80
2023-02-28T14:02:21.417Z,74.60
2023-02-28T14:05:05.533Z,75.20
2023-02-28T14:07:48.005Z,74.80
2023-02-28T14:10:31.937Z,75.40
2023-02-28T14:13:15.567Z,75.30
2023-02-28T14:15:56.240Z,74.90
2023-02-28T14:18:32.038Z,74.60
2023-02-28T14:21:12.480Z,71.30
2023-02-28T14:24:21.385Z,71.40
2023-02-28T14:27:17.783Z,72.50
2023-02-28T14:30:13.469Z,73.60
2023-02-28T14:32:51.944Z,74.00
2023-02-28T14:35:41.345Z,74.70
2023-02-28T14:38:22.675Z,73.00
2023-02-28T14:40:55.096Z,72.60
2023-02-28T14:43:31.651Z,69.80
2023-02-28T14:46:05.919Z,72.60
2023-02-28T14:48:39.585Z,73.30
2023-02-28T14:51:10.949Z,73.70
2023-02-28T14:53:42.466Z,74.70
2023-02-28T14:56:25.040Z,75.60
2023-02-28T14:59:02.141Z,76.30
2023-02-28T15:01:33.211Z,76.70
2023-02-28T15:04:07.092Z,76.60
2023-02-28T15:06:37.991Z,76.70
2023-02-28T15:09:14.813Z,76.50
2023-02-28T15:11:49.094Z,76.80
2023-02-28T15:14:25.743Z,76.90
2023-02-28T15:17:02.208Z,77.20
2023-02-28T15:19:36.236Z,77.20
2023-02-28T15:22:10.267Z,77.30
2023-02-28T15:24:45.713Z,77.30
2023-02-28T15:27:22.329Z,77.40
2023-02-28T15:30:00.733Z,77.50
2023-02-28T15:32:34.311Z,77.60
2023-02-28T15:35:25.998Z,77.70
2023-02-28T15:37:59.306Z,77.80
2023-02-28T15:40:32.781Z,78.00
2023-02-28T15:43:08.979Z,78.30
2023-02-28T15:45:48.672Z,78.40
2023-02-28T15:48:22.620Z,78.60
2023-02-28T15:50:56.474Z,79.00
2023-02-28T15:53:33.872Z,79.30
2023-02-28T15:56:07.692Z,79.60
2023-02-28T15:58:40.546Z,79.70
2023-02-28T16:01:24.370Z,80.00
2023-02-28T16:03:57.767Z,80.10
2023-02-28T16:06:44.319Z,80.30
2023-02-28T16:09:17.471Z,80.50
2023-02-28T16:11:51.360Z,80.70
2023-02-28T16:14:24.456Z,80.90
2023-02-28T16:17:01.130Z,81.10
2023-02-28T16:19:33.824Z,81.30
2023-02-28T16:22:06.294Z,81.30
2023-02-28T16:24:37.880Z,81.50
2023-02-28T16:27:09.319Z,81.90
2023-02-28T16:29:41.259Z,82.30
2023-02-28T16:32:16.727Z,82.60
2023-02-28T16:34:48.527Z,83.10
2023-02-28T16:37:21.368Z,83.20
2023-02-28T16:39:52.334Z,83.70
2023-02-28T16:42:26.934Z,84.00
2023-02-28T16:44:59.194Z,84.30
2023-02-28T16:47:34.071Z,84.50
2023-02-28T16:50:04.865Z,84.90
2023-02-28T16:52:36.469Z,85.30
2023-02-28T16:55:07.587Z,85.60
2023-02-28T16:57:38.844Z,85.80
2023-02-28T17:00:10.464Z,86.10
2023-02-28T17:02:47.156Z,86.90
2023-02-28T17:05:19.913Z,86.60
2023-02-28T17:07:52.043Z,86.60
2023-02-28T17:10:24.621Z,86.70
2023-02-28T17:13:06.021Z,87.00
2023-02-28T17:15:41.967Z,87.30
2023-02-28T17:18:20.061Z,87.60
2023-02-28T17:20:51.503Z,87.80
2023-02-28T17:23:22.606Z,87.90
2023-02-28T17:25:58.241Z,88.20
2023-02-28T17:28:30.528Z,89.10
2023-02-28T17:31:01.632Z,88.90
2023-02-28T17:33:35.530Z,89.10
2023-02-28T17:36:06.491Z,89.00
2023-02-28T17:38:38.441Z,89.10
2023-02-28T17:41:09.549Z,89.30
2023-02-28T17:43:41.049Z,89.10
2023-02-28T17:46:21.622Z,89.00
2023-02-28T17:48:56.937Z,89.10
2023-02-28T17:51:28.778Z,89.20
2023-02-28T17:54:00.596Z,89.20
2023-02-28T17:56:32.190Z,89.10
2023-02-28T17:59:03.575Z,89.00
2023-02-28T18:01:34.350Z,89.00
2023-02-28T18:04:07.864Z,89.40
2023-02-28T18:06:47.539Z,89.50
2023-02-28T18:09:22.987Z,89.30
2023-02-28T18:11:54.651Z,89.40
2023-02-28T18:14:27.624Z,89.20
2023-02-28T18:16:59.297Z,89.10
2023-02-28T18:19:32.995Z,89.20
2023-02-28T18:22:03.770Z,89.10
2023-02-28T18:24:34.833Z,89.10
2023-02-28T18:27:07.015Z,89.00
2023-02-28T18:29:40.064Z,89.00
2023-02-28T18:32:11.821Z,89.10
2023-02-28T18:34:45.464Z,89.20
2023-02-28T18:37:16.303Z,89.50
2023-02-28T18:39:47.837Z,89.40
2023-02-28T18:42:19.240Z,89.40
2023-02-28T18:44:50.634Z,89.40
2023-02-28T18:47:21.483Z,89.50
2023-02-28T18:49:55.486Z,89.60
2023-02-28T18:52:26.309Z,89.50
2023-02-28T18:54:57.632Z,89.60
2023-02-28T18:57:28.526Z,89.70
2023-02-28T18:59:59.630Z,89.80
2023-02-28T19:02:30.224Z,90.00
2023-02-28T19:05:03.958Z,90.10
2023-02-28T19:07:34.695Z,90.00
2023-02-28T19:10:05.838Z,90.30
2023-02-28T19:12:37.410Z,90.00
2023-02-28T19:15:10.641Z,90.10
2023-02-28T19:17:46.418Z,90.00
2023-02-28T19:20:23.754Z,90.00
2023-02-28T19:22:54.497Z,90.00
2023-02-28T19:25:26.224Z,90.10
2023-02-28T19:27:57.792Z,90.10
2023-02-28T19:30:29.278Z,90.20
2023-02-28T19:33:00.030Z,90.30
2023-02-28T19:35:33.809Z,90.30
2023-02-28T19:38:05.194Z,90.40
2023-02-28T19:40:36.331Z,90.40
2023-02-28T19:43:12.405Z,90.40
2023-02-28T19:45:45.945Z,90.40
2023-02-28T19:48:16.941Z,90.50
2023-02-28T19:50:50.820Z,90.50
2023-02-28T19:53:21.942Z,90.60
2023-02-28T19:55:53.584Z,90.60
2023-02-28T19:58:24.642Z,90.50
2023-02-28T20:00:56.190Z,90.50
2023-02-28T20:03:27.688Z,90.40
2023-02-28T20:06:10.191Z,90.30
2023-02-28T20:08:41.650Z,90.40
2023-02-28T20:11:15.827Z,90.50
2023-02-28T20:13:47.437Z,90.60
2023-02-28T20:16:19.046Z,90.60
2023-02-28T20:18:54.047Z,90.70
2023-02-28T20:21:27.762Z,90.70
2023-02-28T20:23:58.660Z,90.80
2023-02-28T20:26:30.259Z,90.80
2023-02-28T20:29:01.154Z,90.80
2023-02-28T20:31:32.756Z,90.80
2023-02-28T20:34:03.536Z,90.80
2023-02-28T20:36:37.511Z,90.90
2023-02-28T20:39:08.350Z,90.80
2023-02-28T20:41:39.728Z,90.90
2023-02-28T20:44:10.564Z,90.90
2023-02-28T20:46:43.419Z,91.00
2023-02-28T20:49:15.361Z,91.10
2023-02-28T20:51:49.106Z,91.00
2023-02-28T20:54:20.333Z,91.10
2023-02-28T20:56:51.528Z,91.20
2023-02-28T20:59:22.535Z,91.40
2023-02-28T21:01:56.494Z,91.30
2023-02-28T21:04:27.243Z,91.20
2023-02-28T21:07:00.964Z,91.20
2023-02-28T21:09:32.286Z,91.30
2023-02-28T21:12:03.631Z,91.30
2023-02-28T21:14:35.400Z,91.30
2023-02-28T21:17:08.798Z,91.40
2023-02-28T21:19:39.594Z,91.50
2023-02-28T21:22:14.141Z,91.50
2023-02-28T21:24:44.866Z,91.50
2023-02-28T21:27:16.665Z,91.60
2023-02-28T21:29:48.041Z,91.50
2023-02-28T21:32:19.841Z,91.60
2023-02-28T21:34:50.587Z,91.50
2023-02-28T21:37:24.296Z,91.60
2023-02-28T21:39:55.258Z,91.50
2023-02-28T21:42:26.626Z,91.50
2023-02-28T21:44:57.888Z,91.60
2023-02-28T21:47:31.121Z,91.60
2023-02-28T21:50:01.964Z,91.70
2023-02-28T21:52:35.713Z,91.70
2023-02-28T21:55:06.681Z,91.70
2023-02-28T21:57:38.960Z,91.70
2023-02-28T22:00:13.517Z,91.70
2023-02-28T22:02:44.591Z,91.80
2023-02-28T22:05:15.287Z,91.90
2023-02-28T22:07:50.009Z,92.20
2023-02-28T22:10:21.344Z,92.30
2023-02-28T22:12:52.637Z,92.20
2023-02-28T22:15:26.032Z,92.30
2023-02-28T22:17:57.121Z,92.40
2023-02-28T22:20:28.342Z,92.40
2023-02-28T22:23:02.323Z,92.40
2023-02-28T22:25:33.093Z,92.60
2023-02-28T22:28:04.513Z,92.60
2023-02-28T22:30:35.272Z,92.60
2023-02-28T22:33:06.751Z,92.80
2023-02-28T22:35:37.879Z,92.60
2023-02-28T22:38:12.424Z,92.60
2023-02-28T22:40:43.476Z,92.60
2023-02-28T22:43:15.345Z,92.60
2023-02-28T22:45:46.106Z,92.50
2023-02-28T22:48:17.314Z,92.50
2023-02-28T22:50:47.719Z,92.40
2023-02-28T22:53:21.524Z,92.60
2023-02-28T22:55:58.297Z,92.40
2023-02-28T22:58:30.077Z,92.40
2023-02-28T23:01:09.322Z,92.40
2023-02-28T23:03:41.838Z,92.40
2023-02-28T23:06:17.901Z,92.40
2023-02-28T23:08:52.679Z,92.50
2023-02-28T23:11:25.368Z,92.50
2023-02-28T23:14:02.889Z,92.60
2023-02-28T23:16:36.387Z,92.70
2023-02-28T23:19:11.107Z,92.60
2023-02-28T23:21:44.003Z,92.60
2023-02-28T23:24:19.887Z,92.60
2023-02-28T23:26:53.954Z,92.60
2023-02-28T23:29:26.253Z,92.70
2023-02-28T23:31:57.962Z,92.80
2023-02-28T23:34:30.781Z,92.90
2023-02-28T23:37:02.899Z,93.00
2023-02-28T23:39:36.966Z,93.10
2023-02-28T23:42:08.062Z,93.00
2023-02-28T23:44:39.151Z,93.00
2023-02-28T23:47:13.098Z,93.10
2023-02-28T23:49:44.175Z,93.10
2023-02-28T23:52:14.928Z,93.10
2023-02-28T23:54:48.899Z,93.20
2023-02-28T23:57:20.017Z,93.10
2023-02-28T23:59:51.296Z,93.00
